createdAt,value
2019-05-04T00:00:55.189Z,9.88
2019-05-04T00:03:25.542Z,9.91
2019-05-04T00:05:55.595Z,9.97
2019-05-04T00:08:25.940Z,9.94
2019-05-04T00:10:57.474Z,9.31
2019-05-04T00:13:27.641Z,9.92
2019-05-04T00:16:01.994Z,9.90
2019-05-04T00:18:36.311Z,9.90
2019-05-04T00:21:06.751Z,9.86
2019-05-04T00:23:37.277Z,9.85
2019-05-04T00:26:07.968Z,9.87
2019-05-04T00:28:38.046Z,9.90
2019-05-04T00:31:08.306Z,9.96
2019-05-04T00:33:46.652Z,9.95
2019-05-04T00:36:38.519Z,9.99
2019-05-04T00:39:17.451Z,9.98
2019-05-04T00:41:47.945Z,9.92
2019-05-04T00:44:18.262Z,9.99
2019-05-04T00:46:48.511Z,10.03
2019-05-04T00:49:18.972Z,10.09
2019-05-04T00:51:49.244Z,10.05
2019-05-04T00:54:19.461Z,10.09
2019-05-04T00:56:50.779Z,10.14
2019-05-04T00:59:27.307Z,10.17
2019-05-04T01:02:20.573Z,10.12
2019-05-04T01:04:50.985Z,10.10
2019-05-04T01:07:21.735Z,10.01
2019-05-04T01:09:55.067Z,10.00
2019-05-04T01:12:28.049Z,10.00
2019-05-04T01:14:59.097Z,10.02
2019-05-04T01:17:30.879Z,9.97
2019-05-04T01:20:02.051Z,10.00
2019-05-04T01:22:34.425Z,9.96
2019-05-04T01:25:05.495Z,9.98
2019-05-04T01:27:35.681Z,10.02
2019-05-04T01:30:07.357Z,10.00
2019-05-04T01:32:38.978Z,9.99
2019-05-04T01:35:12.435Z,10.06
2019-05-04T01:37:56.891Z,10.09
2019-05-04T01:40:32.338Z,10.10
2019-05-04T01:43:04.620Z,10.16
2019-05-04T01:45:34.836Z,10.10
2019-05-04T01:48:05.563Z,10.09
2019-05-04T01:50:37.672Z,10.14
2019-05-04T01:53:29.417Z,10.17
2019-05-04T01:56:15.606Z,10.19
2019-05-04T01:58:54.760Z,10.18
2019-05-04T02:01:27.494Z,10.15
2019-05-04T02:03:57.718Z,10.23
2019-05-04T02:06:35.185Z,10.23
2019-05-04T02:09:14.693Z,10.27
2019-05-04T02:11:47.041Z,10.25
2019-05-04T02:14:21.042Z,10.28
2019-05-04T02:16:51.252Z,10.25
2019-05-04T02:19:21.615Z,10.13
2019-05-04T02:21:56.769Z,10.07
2019-05-04T02:24:35.370Z,9.95
2019-05-04T02:27:30.764Z,9.92
2019-05-04T02:30:16.839Z,9.93
2019-05-04T02:32:47.075Z,9.76
2019-05-04T02:35:20.112Z,9.66
2019-05-04T02:38:03.980Z,9.61
2019-05-04T02:40:37.373Z,9.27
2019-05-04T02:43:01.824Z,9.21
2019-05-04T02:45:35.743Z,9.16
2019-05-04T02:48:18.686Z,9.18
2019-05-04T02:50:56.128Z,9.15
2019-05-04T02:53:26.466Z,9.11
2019-05-04T02:55:56.751Z,9.06
2019-05-04T02:58:35.609Z,8.94
2019-05-04T03:01:04.960Z,8.82
2019-05-04T03:03:35.732Z,8.86
2019-05-04T03:06:08.051Z,8.74
2019-05-04T03:08:38.920Z,8.75
2019-05-04T03:11:09.361Z,8.75
2019-05-04T03:13:41.330Z,8.72
2019-05-04T03:16:11.559Z,8.65
2019-05-04T03:18:46.279Z,8.59
2019-05-04T03:21:25.490Z,8.59
2019-05-04T03:23:59.129Z,8.56
2019-05-04T03:26:29.575Z,8.21
2019-05-04T03:28:59.628Z,8.00
2019-05-04T03:31:29.753Z,7.82
2019-05-04T03:33:59.832Z,6.74
2019-05-04T03:36:33.334Z,6.98
2019-05-04T03:39:05.678Z,6.94
2019-05-04T03:41:35.393Z,6.71
2019-05-04T03:44:06.148Z,6.37
2019-05-04T03:46:55.994Z,6.36
2019-05-04T03:49:57.912Z,6.29
2019-05-04T03:52:38.805Z,5.96
2019-05-04T03:55:11.111Z,5.98
2019-05-04T03:57:41.525Z,6.02
2019-05-04T04:00:16.160Z,6.15
2019-05-04T04:02:46.641Z,6.17
2019-05-04T04:05:17.279Z,6.05
2019-05-04T04:07:48.012Z,6.09
2019-05-04T04:10:18.936Z,6.13
2019-05-04T04:12:49.153Z,6.19
2019-05-04T04:15:19.690Z,6.27
2019-05-04T04:18:25.300Z,6.36
2019-05-04T04:21:05.787Z,6.41
2019-05-04T04:23:42.310Z,6.41
2019-05-04T04:26:41.019Z,6.50
2019-05-04T04:29:16.117Z,6.51
2019-05-04T04:31:46.423Z,6.53
2019-05-04T04:34:16.510Z,6.60
2019-05-04T04:36:47.055Z,6.69
2019-05-04T04:39:29.858Z,6.77
2019-05-04T04:41:51.267Z,6.77
2019-05-04T04:44:21.696Z,6.81
2019-05-04T04:46:51.708Z,6.87
2019-05-04T04:49:21.981Z,6.79
2019-05-04T04:51:52.200Z,6.55
2019-05-04T04:54:22.298Z,6.34
2019-05-04T04:56:56.165Z,6.26
2019-05-04T04:59:49.870Z,6.21
2019-05-04T05:02:19.897Z,6.11
2019-05-04T05:04:49.998Z,6.17
2019-05-04T05:07:21.210Z,6.14
2019-05-04T05:09:51.799Z,5.93
2019-05-04T05:12:22.344Z,5.79
2019-05-04T05:14:52.249Z,5.13
2019-05-04T05:17:24.165Z,5.80
2019-05-04T05:19:54.554Z,5.87
2019-05-04T05:22:25.056Z,5.84
2019-05-04T05:24:55.314Z,5.88
2019-05-04T05:27:25.571Z,5.85
2019-05-04T05:29:57.373Z,5.88
2019-05-04T05:32:47.994Z,5.88
2019-05-04T05:35:28.238Z,5.96
2019-05-04T05:37:58.570Z,6.04
2019-05-04T05:40:28.655Z,6.00
2019-05-04T05:42:58.685Z,5.46
2019-05-04T05:45:49.792Z,6.11
2019-05-04T05:48:22.558Z,6.14
2019-05-04T05:51:14.676Z,6.13
2019-05-04T05:54:04.630Z,5.93
2019-05-04T05:56:41.207Z,5.68
2019-05-04T05:59:34.437Z,5.54
2019-05-04T06:02:25.406Z,5.49
2019-05-04T06:05:17.239Z,5.42
2019-05-04T06:08:15.768Z,5.40
2019-05-04T06:10:49.175Z,5.37
2019-05-04T06:13:39.790Z,5.13
2019-05-04T06:16:34.306Z,5.08
2019-05-04T06:19:14.344Z,5.07
2019-05-04T06:21:59.012Z,5.07
2019-05-04T06:24:35.889Z,5.07
2019-05-04T06:27:20.845Z,5.13
2019-05-04T06:29:57.912Z,4.51
2019-05-04T06:32:35.864Z,5.12
2019-05-04T06:35:15.683Z,5.11
2019-05-04T06:38:10.636Z,5.02
2019-05-04T06:40:44.832Z,4.90
2019-05-04T06:43:52.689Z,4.78
2019-05-04T06:46:16.305Z,4.82
2019-05-04T06:48:46.358Z,4.83
2019-05-04T06:51:44.898Z,4.93
2019-05-04T06:54:32.347Z,4.80
2019-05-04T06:57:22.241Z,4.53
2019-05-04T07:00:01.424Z,4.61
2019-05-04T07:02:30.281Z,4.81
2019-05-04T07:05:01.722Z,4.96
2019-05-04T07:07:32.170Z,5.12
2019-05-04T07:10:06.987Z,5.21
2019-05-04T07:12:35.561Z,5.28
2019-05-04T07:15:15.531Z,5.38
2019-05-04T07:17:41.728Z,5.45
2019-05-04T07:20:12.207Z,4.87
2019-05-04T07:22:44.855Z,5.51
2019-05-04T07:25:19.653Z,5.51
2019-05-04T07:27:54.379Z,5.49
2019-05-04T07:30:21.826Z,5.52
2019-05-04T07:33:09.278Z,4.82
2019-05-04T07:36:06.388Z,5.44
2019-05-04T07:38:48.150Z,5.45
2019-05-04T07:41:26.537Z,5.39
2019-05-04T07:43:47.131Z,5.27
2019-05-04T07:46:19.204Z,5.18
2019-05-04T07:48:49.287Z,5.24
2019-05-04T07:51:19.661Z,5.19
2019-05-04T07:53:50.663Z,4.72
2019-05-04T07:56:20.881Z,5.35
2019-05-04T07:58:51.493Z,5.44
2019-05-04T08:01:24.991Z,4.88
2019-05-04T08:03:54.572Z,5.01
2019-05-04T08:06:24.920Z,5.59
2019-05-04T08:09:00.187Z,5.67
2019-05-04T08:11:47.905Z,5.80
2019-05-04T08:14:11.002Z,5.89
2019-05-04T08:16:41.441Z,6.04
2019-05-04T08:19:11.421Z,6.15
2019-05-04T08:21:42.130Z,6.40
2019-05-04T08:24:23.222Z,6.50
2019-05-04T08:26:44.562Z,6.71
2019-05-04T08:29:23.325Z,6.82
2019-05-04T08:31:47.971Z,6.89
2019-05-04T08:34:20.339Z,6.93
2019-05-04T08:39:20.155Z,6.96
2019-05-04T08:41:55.622Z,7.16
2019-05-04T08:44:20.715Z,7.05
2019-05-04T08:46:57.402Z,6.88
2019-05-04T08:49:32.152Z,6.91
2019-05-04T08:52:08.261Z,6.92
2019-05-04T08:54:38.371Z,6.88
2019-05-04T08:57:14.799Z,7.01
2019-05-04T08:59:49.359Z,7.11
2019-05-04T09:02:44.765Z,7.24
2019-05-04T09:05:52.707Z,7.52
2019-05-04T09:07:57.338Z,7.67
2019-05-04T09:10:20.457Z,7.37
2019-05-04T09:12:51.714Z,7.97
2019-05-04T09:15:24.410Z,8.09
2019-05-04T09:17:58.441Z,8.28
2019-05-04T09:20:29.055Z,8.47
2019-05-04T09:23:01.176Z,8.48
2019-05-04T09:25:34.619Z,8.64
2019-05-04T09:28:11.223Z,9.02
2019-05-04T09:30:38.232Z,9.08
2019-05-04T09:33:09.433Z,9.08
2019-05-04T09:35:48.778Z,9.26
2019-05-04T09:38:21.355Z,9.44
2019-05-04T09:40:51.330Z,9.24
2019-05-04T09:43:21.159Z,9.37
2019-05-04T09:45:50.218Z,9.45
2019-05-04T09:48:20.318Z,9.31
2019-05-04T09:50:52.340Z,9.58
2019-05-04T09:53:33.446Z,9.87
2019-05-04T09:55:54.687Z,10.03
2019-05-04T09:58:30.346Z,10.23
2019-05-04T10:01:03.874Z,10.23
2019-05-04T10:03:34.771Z,10.45
2019-05-04T10:06:05.398Z,10.40
2019-05-04T10:08:35.520Z,10.41
2019-05-04T10:11:45.676Z,10.53
2019-05-04T10:14:28.984Z,10.57
2019-05-04T10:17:11.852Z,10.25
2019-05-04T10:19:42.263Z,9.81
2019-05-04T10:22:12.956Z,9.79
2019-05-04T10:24:45.608Z,9.00
2019-05-04T10:27:24.903Z,9.46
2019-05-04T10:29:55.242Z,9.40
2019-05-04T10:32:27.235Z,9.33
2019-05-04T10:34:57.498Z,9.38
2019-05-04T10:37:31.050Z,9.68
2019-05-04T10:40:05.145Z,10.17
2019-05-04T10:42:35.833Z,10.35
2019-05-04T10:45:06.609Z,10.02
2019-05-04T10:47:37.799Z,10.75
2019-05-04T10:50:11.297Z,11.08
2019-05-04T10:52:44.608Z,10.84
2019-05-04T10:55:18.587Z,11.75
2019-05-04T10:57:49.424Z,11.99
2019-05-04T11:00:21.095Z,12.32
2019-05-04T11:02:51.139Z,12.40
2019-05-04T11:05:21.993Z,12.36
2019-05-04T11:07:54.159Z,12.39
2019-05-04T11:10:25.742Z,12.27
2019-05-04T11:12:55.852Z,12.36
2019-05-04T11:15:30.256Z,12.71
2019-05-04T11:18:00.267Z,12.75
2019-05-04T11:20:39.460Z,12.78
2019-05-04T11:23:09.606Z,13.05
2019-05-04T11:25:48.748Z,13.21
2019-05-04T11:28:21.686Z,12.96
2019-05-04T11:30:51.727Z,12.69
2019-05-04T11:33:24.505Z,12.41
2019-05-04T11:35:55.379Z,12.38
2019-05-04T11:38:25.601Z,12.48
2019-05-04T11:40:59.124Z,12.47
2019-05-04T11:43:30.189Z,12.55
2019-05-04T11:46:00.260Z,12.62
2019-05-04T11:48:35.024Z,12.07
2019-05-04T11:51:05.464Z,12.68
2019-05-04T11:53:35.404Z,12.61
2019-05-04T11:56:05.697Z,12.43
2019-05-04T11:58:35.819Z,12.63
2019-05-04T12:01:06.002Z,12.84
2019-05-04T12:03:36.284Z,12.81
2019-05-04T12:06:16.764Z,13.02
2019-05-04T12:09:16.823Z,13.06
2019-05-04T12:11:47.396Z,12.64
2019-05-04T12:14:17.716Z,13.16
2019-05-04T12:16:48.332Z,12.65
2019-05-04T12:19:19.646Z,12.36
2019-05-04T12:21:49.581Z,12.80
2019-05-04T12:24:24.982Z,12.89
2019-05-04T12:26:55.238Z,13.19
2019-05-04T12:29:31.715Z,13.19
2019-05-04T12:32:02.643Z,13.23
2019-05-04T12:34:34.275Z,13.09
2019-05-04T12:37:05.350Z,12.59
2019-05-04T12:39:37.482Z,12.35
2019-05-04T12:42:08.015Z,12.79
2019-05-04T12:44:38.843Z,13.11
2019-05-04T12:47:09.398Z,12.84
2019-05-04T12:49:39.789Z,13.40
2019-05-04T12:52:10.346Z,13.68
2019-05-04T12:54:40.657Z,13.74
2019-05-04T12:57:11.373Z,13.84
2019-05-04T12:59:41.470Z,13.69
2019-05-04T13:02:10.752Z,13.76
2019-05-04T13:04:40.657Z,13.85
2019-05-04T13:07:10.686Z,13.67
2019-05-04T13:09:41.580Z,13.73
2019-05-04T13:12:11.857Z,13.63
2019-05-04T13:14:44.153Z,14.04
2019-05-04T13:17:26.212Z,13.78
2019-05-04T13:19:57.074Z,14.23
2019-05-04T13:22:27.100Z,14.09
2019-05-04T13:24:57.563Z,14.08
2019-05-04T13:27:30.753Z,14.42
2019-05-04T13:30:01.027Z,14.68
2019-05-04T13:32:35.355Z,14.79
2019-05-04T13:35:06.192Z,15.11
2019-05-04T13:37:36.159Z,15.22
2019-05-04T13:40:11.782Z,14.97
2019-05-04T13:42:42.306Z,14.76
2019-05-04T13:45:15.090Z,14.77
2019-05-04T13:47:45.736Z,14.90
2019-05-04T13:50:15.904Z,15.35
2019-05-04T13:52:47.881Z,15.51
2019-05-04T13:55:36.602Z,15.75
2019-05-04T13:58:20.370Z,15.38
2019-05-04T14:01:14.419Z,14.99
2019-05-04T14:04:03.832Z,14.32
2019-05-04T14:06:35.331Z,12.56
2019-05-04T14:09:07.334Z,10.97
2019-05-04T14:11:38.300Z,9.55
2019-05-04T14:14:10.020Z,8.00
2019-05-04T14:16:41.184Z,7.57
2019-05-04T14:19:14.546Z,7.51
2019-05-04T14:21:44.927Z,7.69
2019-05-04T14:24:15.360Z,7.87
2019-05-04T14:26:45.961Z,8.38
2019-05-04T14:29:18.655Z,8.79
2019-05-04T14:31:48.424Z,9.35
2019-05-04T14:34:18.947Z,9.62
2019-05-04T14:36:49.205Z,9.94
2019-05-04T14:39:20.185Z,10.14
2019-05-04T14:41:50.680Z,10.43
2019-05-04T14:44:37.327Z,10.46
2019-05-04T14:47:17.459Z,10.52
2019-05-04T14:49:47.981Z,10.71
2019-05-04T14:52:16.745Z,10.87
2019-05-04T14:54:47.240Z,10.97
2019-05-04T14:57:17.394Z,11.21
2019-05-04T14:59:47.559Z,11.52
2019-05-04T15:02:17.887Z,11.48
2019-05-04T15:04:48.432Z,11.58
2019-05-04T15:07:18.574Z,11.62
2019-05-04T15:09:49.010Z,12.00
2019-05-04T15:12:22.481Z,11.89
2019-05-04T15:14:54.338Z,11.95
2019-05-04T15:17:25.403Z,12.02
2019-05-04T15:20:12.923Z,11.65
2019-05-04T15:22:45.079Z,11.70
2019-05-04T15:25:15.518Z,11.35
2019-05-04T15:27:45.851Z,10.97
2019-05-04T15:30:16.415Z,10.87
2019-05-04T15:32:46.629Z,10.71
2019-05-04T15:35:25.640Z,10.80
2019-05-04T15:38:06.427Z,11.03
2019-05-04T15:40:47.019Z,10.80
2019-05-04T15:43:18.402Z,10.78
2019-05-04T15:45:57.261Z,10.98
2019-05-04T15:51:04.841Z,11.27
2019-05-04T15:53:58.055Z,11.59
2019-05-04T15:56:59.321Z,11.66
2019-05-04T15:59:34.294Z,11.58
2019-05-04T16:02:08.006Z,11.16
2019-05-04T16:04:38.626Z,11.04
2019-05-04T16:07:09.734Z,10.72
2019-05-04T16:09:40.120Z,10.37
2019-05-04T16:12:10.881Z,10.33
2019-05-04T16:14:52.261Z,10.58
2019-05-04T16:17:34.179Z,10.08
2019-05-04T16:20:05.197Z,10.70
2019-05-04T16:22:36.913Z,10.92
2019-05-04T16:25:17.370Z,11.32
2019-05-04T16:27:51.531Z,11.91
2019-05-04T16:30:40.710Z,12.63
2019-05-04T16:33:23.498Z,13.10
2019-05-04T16:35:54.289Z,13.46
2019-05-04T16:38:25.151Z,13.65
2019-05-04T16:40:56.070Z,13.51
2019-05-04T16:43:26.733Z,13.13
2019-05-04T16:45:58.910Z,13.04
2019-05-04T16:51:42.392Z,12.77
2019-05-04T16:54:16.983Z,12.49
2019-05-04T16:56:46.963Z,12.75
2019-05-04T16:59:17.627Z,12.51
2019-05-04T17:02:19.732Z,12.62
2019-05-04T17:04:54.897Z,12.57
2019-05-04T17:07:27.115Z,12.78
2019-05-04T17:10:00.827Z,12.91
2019-05-04T17:12:32.147Z,13.20
2019-05-04T17:15:04.686Z,13.17
2019-05-04T17:17:38.324Z,12.84
2019-05-04T17:20:12.805Z,12.50
2019-05-04T17:22:45.373Z,11.97
2019-05-04T17:25:25.303Z,11.71
2019-05-04T17:28:15.977Z,11.42
2019-05-04T17:31:09.964Z,10.78
2019-05-04T17:33:40.035Z,10.40
2019-05-04T17:36:14.797Z,9.67
2019-05-04T17:38:45.133Z,9.63
2019-05-04T17:41:36.389Z,9.48
2019-05-04T17:44:10.283Z,9.31
2019-05-04T17:46:41.171Z,9.04
2019-05-04T17:49:13.094Z,9.04
2019-05-04T17:51:44.422Z,8.96
2019-05-04T17:54:15.226Z,9.10
2019-05-04T17:56:45.359Z,8.96
2019-05-04T17:59:16.659Z,8.96
2019-05-04T18:02:05.314Z,8.81
2019-05-04T18:04:40.894Z,8.73
2019-05-04T18:07:11.360Z,8.73
2019-05-04T18:09:42.417Z,8.67
2019-05-04T18:12:29.086Z,8.58
2019-05-04T18:15:36.720Z,8.72
2019-05-04T18:18:26.334Z,8.66
2019-05-04T18:20:59.892Z,8.66
2019-05-04T18:23:29.973Z,8.60
2019-05-04T18:26:00.065Z,8.51
2019-05-04T18:28:33.932Z,8.36
2019-05-04T18:31:05.847Z,8.36
2019-05-04T18:33:36.519Z,8.18
2019-05-04T18:36:06.878Z,8.16
2019-05-04T18:38:37.491Z,7.73
2019-05-04T18:41:08.239Z,7.76
2019-05-04T18:44:12.538Z,7.73
2019-05-04T18:47:04.920Z,7.74
2019-05-04T18:49:37.604Z,7.70
2019-05-04T18:52:08.108Z,7.62
2019-05-04T18:54:39.462Z,7.72
2019-05-04T18:57:09.759Z,7.79
2019-05-04T18:59:39.842Z,7.79
2019-05-04T19:02:10.466Z,7.79
2019-05-04T19:04:41.244Z,7.74
2019-05-04T19:07:40.652Z,7.54
2019-05-04T19:10:12.105Z,7.42
2019-05-04T19:12:45.201Z,7.36
2019-05-04T19:15:16.786Z,7.38
2019-05-04T19:17:48.955Z,7.27
2019-05-04T19:20:19.321Z,7.27
2019-05-04T19:22:50.034Z,7.29
2019-05-04T19:25:21.788Z,7.31
2019-05-04T19:27:52.161Z,7.23
2019-05-04T19:30:24.978Z,7.22
2019-05-04T19:32:55.564Z,7.01
2019-05-04T19:35:25.759Z,7.23
2019-05-04T19:37:57.112Z,7.31
2019-05-04T19:40:38.713Z,7.31
2019-05-04T19:43:26.566Z,7.41
2019-05-04T19:46:15.679Z,7.38
2019-05-04T19:48:59.261Z,7.37
2019-05-04T19:51:29.710Z,7.33
2019-05-04T19:54:06.216Z,7.24
2019-05-04T19:56:35.250Z,7.24
2019-05-04T19:59:05.539Z,7.30
2019-05-04T20:01:36.101Z,7.27
2019-05-04T20:04:06.799Z,7.32
2019-05-04T20:06:47.387Z,7.36
2019-05-04T20:09:25.631Z,7.33
2019-05-04T20:12:09.049Z,7.29
2019-05-04T20:15:06.867Z,7.21
2019-05-04T20:17:11.287Z,7.17
2019-05-04T20:19:41.394Z,7.18
2019-05-04T20:22:11.474Z,7.24
2019-05-04T20:24:41.828Z,7.20
2019-05-04T20:27:11.970Z,7.21
2019-05-04T20:29:42.052Z,7.26
2019-05-04T20:32:15.086Z,7.27
2019-05-04T20:34:45.109Z,7.34
2019-05-04T20:37:15.806Z,7.37
2019-05-04T20:39:46.043Z,7.32
2019-05-04T20:42:16.567Z,7.42
2019-05-04T20:44:52.499Z,7.52
2019-05-04T20:47:48.059Z,7.56
2019-05-04T20:50:16.834Z,7.42
2019-05-04T20:53:09.869Z,7.60
2019-05-04T20:55:41.582Z,7.62
2019-05-04T20:58:12.333Z,7.52
2019-05-04T21:00:42.943Z,7.51
2019-05-04T21:03:20.318Z,7.59
2019-05-04T21:06:22.513Z,7.55
2019-05-04T21:08:52.664Z,7.61
2019-05-04T21:11:24.404Z,7.54
2019-05-04T21:13:55.275Z,7.52
2019-05-04T21:16:27.504Z,7.51
2019-05-04T21:19:24.522Z,7.52
2019-05-04T21:22:00.929Z,7.48
2019-05-04T21:24:31.365Z,7.47
2019-05-04T21:27:01.447Z,7.34
2019-05-04T21:29:34.725Z,7.24
2019-05-04T21:32:05.185Z,7.22
2019-05-04T21:34:36.806Z,7.04
2019-05-04T21:37:07.732Z,7.11
2019-05-04T21:39:38.064Z,7.07
2019-05-04T21:42:08.397Z,7.08
2019-05-04T21:44:57.954Z,6.90
2019-05-04T21:47:39.987Z,6.86
2019-05-04T21:50:24.415Z,6.88
2019-05-04T21:52:56.753Z,6.65
2019-05-04T21:55:26.644Z,6.92
2019-05-04T21:57:59.915Z,6.80
2019-05-04T22:00:47.806Z,6.69
2019-05-04T22:03:35.197Z,6.76
2019-05-04T22:06:05.885Z,6.61
2019-05-04T22:08:36.077Z,6.45
2019-05-04T22:11:06.474Z,6.41
2019-05-04T22:13:37.128Z,6.34
2019-05-04T22:16:07.225Z,6.29
2019-05-04T22:18:37.617Z,6.26
2019-05-04T22:21:08.152Z,6.12
2019-05-04T22:23:38.344Z,6.05
2019-05-04T22:26:08.702Z,6.12
2019-05-04T22:28:38.846Z,6.04
2019-05-04T22:31:09.329Z,6.01
2019-05-04T22:33:39.353Z,5.96
2019-05-04T22:36:28.154Z,5.90
2019-05-04T22:38:59.369Z,5.89
2019-05-04T22:41:30.619Z,5.88
2019-05-04T22:44:06.374Z,5.88
2019-05-04T22:46:36.855Z,5.84
2019-05-04T22:49:06.999Z,5.83
2019-05-04T22:51:37.829Z,5.80
2019-05-04T22:54:29.862Z,5.73
2019-05-04T22:57:00.100Z,5.74
2019-05-04T22:59:35.150Z,5.66
2019-05-04T23:02:15.161Z,5.44
2019-05-04T23:04:48.455Z,5.47
2019-05-04T23:07:19.189Z,5.38
2019-05-04T23:09:49.429Z,5.40
2019-05-04T23:12:19.837Z,5.33
2019-05-04T23:14:49.934Z,5.52
2019-05-04T23:17:20.646Z,5.43
2019-05-04T23:19:56.256Z,5.43
2019-05-04T23:23:01.315Z,5.43
2019-05-04T23:25:31.420Z,5.47
2019-05-04T23:28:01.724Z,5.47
2019-05-04T23:30:31.947Z,5.44
2019-05-04T23:33:02.328Z,5.51
2019-05-04T23:35:32.706Z,5.60
2019-05-04T23:38:04.428Z,5.71
2019-05-04T23:40:36.442Z,5.72
2019-05-04T23:43:06.712Z,5.77
2019-05-04T23:45:39.244Z,5.83
2019-05-04T23:48:16.393Z,5.84
2019-05-04T23:50:47.454Z,5.95
2019-05-04T23:53:17.838Z,5.98
2019-05-04T23:55:48.027Z,6.03
2019-05-04T23:58:41.055Z,6.17
